Time;durP1;ratioP1;P1;durP2;ratioP2;P2;SDS_P1;SDS_P2;PMS_P1;PMS_P2;Temp;Humidity;BMP_temperature;BMP_pressure;BME280_temperature;BME280_humidity;BME280_pressure;Samples;Min_cycle;Max_cycle;Signal;HPM_P1;HPM_P2
2023/03/20 00:00:45;;;;;;;2.00;1.50;;;;;;;;;;5078896;28;20636;-63
2023/03/20 00:03:13;;;;;;;1.63;1.23;;;;;;;;;;5079082;28;20696;-63
2023/03/20 00:05:41;;;;;;;1.80;1.30;;;;;;;;;;5079034;28;20293;-63
2023/03/20 00:08:11;;;;;;;3.03;1.20;;;;;;;;;;5079196;28;20202;-63
2023/03/20 00:10:40;;;;;;;1.30;1.20;;;;;;;;;;5078805;28;20250;-63
2023/03/20 00:13:11;;;;;;;1.50;1.40;;;;;;;;;;5079184;28;20289;-63
2023/03/20 00:15:41;;;;;;;1.93;1.53;;;;;;;;;;5079460;28;20242;-63
2023/03/20 00:18:13;;;;;;;1.47;1.30;;;;;;;;;;5079248;28;20237;-63
2023/03/20 00:20:41;;;;;;;2.20;1.80;;;;;;;;;;5078564;28;20727;-63
2023/03/20 00:23:11;;;;;;;2.73;1.23;;;;;;;;;;5078636;28;20240;-64
2023/03/20 00:25:39;;;;;;;1.20;1.10;;;;;;;;;;5078707;28;20232;-63
2023/03/20 00:28:40;;;;;;;1.53;1.00;;;;;;;;;;5078556;28;20234;-63
2023/03/20 00:31:14;;;;;;;4.43;1.40;;;;;;;;;;5016774;28;20227;-63
2023/03/20 00:33:42;;;;;;;2.17;1.10;;;;;;;;;;5016845;28;20656;-63
2023/03/20 00:36:10;;;;;;;2.27;1.17;;;;;;;;;;5047035;28;20273;-63
2023/03/20 00:38:39;;;;;;;2.27;1.10;;;;;;;;;;5078705;28;20266;-63
2023/03/20 00:41:13;;;;;;;1.20;1.00;;;;;;;;;;5078574;28;20230;-63
2023/03/20 00:43:40;;;;;;;1.03;1.03;;;;;;;;;;5078689;28;20245;-63
2023/03/20 00:46:12;;;;;;;1.00;0.93;;;;;;;;;;5078492;28;20216;-63
2023/03/20 00:48:41;;;;;;;1.63;0.77;;;;;;;;;;5078343;28;20246;-63
2023/03/20 00:51:09;;;;;;;1.07;1.00;;;;;;;;;;5077808;28;20258;-63
2023/03/20 00:53:37;;;;;;;1.07;0.97;;;;;;;;;;5078578;28;20208;-63
2023/03/20 00:56:07;;;;;;;0.70;0.70;;;;;;;;;;5078041;28;20206;-63
2023/03/20 00:58:35;;;;;;;1.47;1.13;;;;;;;;;;5078078;28;20707;-63
2023/03/20 01:01:03;;;;;;;1.93;0.80;;;;;;;;;;5078097;28;20234;-63
2023/03/20 01:03:31;;;;;;;0.93;0.93;;;;;;;;;;5078329;28;20206;-63
2023/03/20 01:05:59;;;;;;;1.03;0.80;;;;;;;;;;5078039;28;20214;-63
2023/03/20 01:08:27;;;;;;;1.07;0.97;;;;;;;;;;5078169;28;20216;-63
2023/03/20 01:10:56;;;;;;;0.83;0.83;;;;;;;;;;5077883;28;20257;-63
2023/03/20 01:13:27;;;;;;;2.30;1.50;;;;;;;;;;5077853;28;20235;-63
2023/03/20 01:15:56;;;;;;;1.67;1.07;;;;;;;;;;5078067;28;20210;-63
2023/03/20 01:18:25;;;;;;;2.40;2.23;;;;;;;;;;5077425;28;20206;-63
2023/03/20 01:20:53;;;;;;;2.00;1.13;;;;;;;;;;5074213;28;20218;-63
2023/03/20 01:23:21;;;;;;;0.70;0.70;;;;;;;;;;5077597;28;20202;-63
2023/03/20 01:25:50;;;;;;;0.80;0.80;;;;;;;;;;5077678;28;20208;-63
2023/03/20 01:28:19;;;;;;;1.30;0.90;;;;;;;;;;5077862;28;20248;-63
2023/03/20 01:30:49;;;;;;;1.00;1.00;;;;;;;;;;5077276;28;20218;-63
2023/03/20 01:33:18;;;;;;;1.80;0.90;;;;;;;;;;5077817;28;20228;-63
2023/03/20 01:35:46;;;;;;;1.50;0.90;;;;;;;;;;5077234;28;20704;-63
2023/03/20 01:38:15;;;;;;;0.90;0.90;;;;;;;;;;5077748;28;20198;-63
2023/03/20 01:40:47;;;;;;;1.87;1.50;;;;;;;;;;5077183;28;20225;-62
2023/03/20 01:43:17;;;;;;;0.73;0.73;;;;;;;;;;5077654;28;20562;-63
2023/03/20 01:45:49;;;;;;;1.33;1.10;;;;;;;;;;5077523;28;20202;-63
2023/03/20 01:48:19;;;;;;;0.80;0.80;;;;;;;;;;5079361;28;20255;-63
2023/03/20 01:50:47;;;;;;;0.90;0.90;;;;;;;;;;5081498;28;20229;-63
2023/03/20 01:53:16;;;;;;;1.87;0.87;;;;;;;;;;5081904;28;20213;-63
2023/03/20 01:55:45;;;;;;;0.90;0.90;;;;;;;;;;5081774;28;20222;-63
2023/03/20 01:58:16;;;;;;;0.87;0.87;;;;;;;;;;5081530;28;20233;-63
2023/03/20 02:00:44;;;;;;;0.80;0.80;;;;;;;;;;5081416;28;20238;-63
2023/03/20 02:03:12;;;;;;;1.60;1.03;;;;;;;;;;5081389;28;20209;-63
2023/03/20 02:05:43;;;;;;;1.83;1.10;;;;;;;;;;5081080;28;20238;-63
2023/03/20 02:08:24;;;;;;;0.97;0.80;;;;;;;;;;5081672;28;20233;-63
2023/03/20 02:10:52;;;;;;;0.70;0.70;;;;;;;;;;5081130;28;20321;-63
2023/03/20 02:13:20;;;;;;;5.13;0.80;;;;;;;;;;5081701;28;20209;-63
2023/03/20 02:15:54;;;;;;;1.17;1.07;;;;;;;;;;5081059;28;20238;-63
2023/03/20 02:18:23;;;;;;;0.80;0.80;;;;;;;;;;5081345;28;20237;-63
2023/03/20 02:20:58;;;;;;;4.00;1.13;;;;;;;;;;5080700;28;20241;-63
2023/03/20 02:23:43;;;;;;;0.70;0.70;;;;;;;;;;5081031;28;20693;-63
2023/03/20 02:26:26;;;;;;;0.80;0.70;;;;;;;;;;5080977;28;20660;-63
2023/03/20 02:29:12;;;;;;;0.93;0.90;;;;;;;;;;5080203;28;20216;-63
2023/03/20 02:31:54;;;;;;;2.17;0.90;;;;;;;;;;5080963;28;20210;-63
2023/03/20 02:34:37;;;;;;;3.33;1.20;;;;;;;;;;5080764;28;20206;-63
2023/03/20 02:37:23;;;;;;;2.00;0.77;;;;;;;;;;5048381;28;20775;-63
2023/03/20 02:39:54;;;;;;;1.70;1.00;;;;;;;;;;5080659;28;20233;-63
2023/03/20 02:42:29;;;;;;;3.67;1.10;;;;;;;;;;5080747;28;20202;-63
2023/03/20 02:45:04;;;;;;;0.90;0.70;;;;;;;;;;5080663;28;20265;-63
2023/03/20 02:47:37;;;;;;;1.23;1.00;;;;;;;;;;5080441;28;20653;-63
2023/03/20 02:50:10;;;;;;;0.80;0.80;;;;;;;;;;5080405;28;20224;-63
2023/03/20 02:52:42;;;;;;;1.00;1.00;;;;;;;;;;5080520;28;20665;-63
2023/03/20 02:55:14;;;;;;;1.33;0.90;;;;;;;;;;5080525;28;20241;-63
2023/03/20 02:57:45;;;;;;;1.43;1.00;;;;;;;;;;5080767;28;20210;-63
2023/03/20 03:00:15;;;;;;;1.40;0.80;;;;;;;;;;5079148;28;20237;-63
2023/03/20 03:02:48;;;;;;;1.13;0.77;;;;;;;;;;5080122;28;20289;-63
2023/03/20 03:05:18;;;;;;;0.80;0.80;;;;;;;;;;5080252;28;20206;-63
2023/03/20 03:07:48;;;;;;;0.77;0.77;;;;;;;;;;5080637;28;20296;-63
2023/03/20 03:10:21;;;;;;;1.40;0.70;;;;;;;;;;5080057;28;20685;-63
2023/03/20 03:12:51;;;;;;;0.70;0.70;;;;;;;;;;5080443;28;20212;-63
2023/03/20 03:15:22;;;;;;;0.63;0.63;;;;;;;;;;5080389;28;20214;-63
2023/03/20 03:17:50;;;;;;;0.80;0.80;;;;;;;;;;5080204;28;20210;-63
2023/03/20 03:20:22;;;;;;;1.17;0.80;;;;;;;;;;5079802;28;20230;-63
2023/03/20 03:22:50;;;;;;;1.50;0.90;;;;;;;;;;5080001;28;20208;-63
2023/03/20 03:25:21;;;;;;;0.70;0.70;;;;;;;;;;5080296;28;20199;-63
2023/03/20 03:27:53;;;;;;;0.77;0.73;;;;;;;;;;5080178;28;20210;-63
2023/03/20 03:30:24;;;;;;;2.27;0.67;;;;;;;;;;5079763;28;20226;-63
2023/03/20 03:33:03;;;;;;;0.97;0.60;;;;;;;;;;5079595;28;20237;-63
2023/03/20 03:35:31;;;;;;;0.80;0.80;;;;;;;;;;5079622;28;20623;-63
2023/03/20 03:38:00;;;;;;;0.70;0.70;;;;;;;;;;5079896;28;20297;-63
2023/03/20 03:40:34;;;;;;;0.77;0.70;;;;;;;;;;5079489;28;20297;-63
2023/03/20 03:43:04;;;;;;;1.57;0.70;;;;;;;;;;5079823;28;20210;-63
2023/03/20 03:45:33;;;;;;;3.23;1.00;;;;;;;;;;5079786;28;20237;-62
2023/03/20 03:48:03;;;;;;;2.13;0.80;;;;;;;;;;5079265;28;20633;-63
2023/03/20 03:50:32;;;;;;;2.70;1.00;;;;;;;;;;5079046;28;20581;-63
2023/03/20 03:53:02;;;;;;;0.87;0.83;;;;;;;;;;5079785;28;20216;-63
2023/03/20 03:55:35;;;;;;;1.17;0.70;;;;;;;;;;5079947;28;20232;-63
2023/03/20 03:58:04;;;;;;;1.83;0.83;;;;;;;;;;5066663;28;20649;-63
2023/03/20 04:00:33;;;;;;;1.53;0.90;;;;;;;;;;5079009;28;20313;-63
2023/03/20 04:03:02;;;;;;;0.90;0.90;;;;;;;;;;5079072;28;20238;-63
2023/03/20 04:05:31;;;;;;;1.17;0.83;;;;;;;;;;5079010;28;20290;-63
2023/03/20 04:08:04;;;;;;;2.40;0.90;;;;;;;;;;5079320;28;20203;-63
2023/03/20 04:10:34;;;;;;;1.13;0.70;;;;;;;;;;5078496;28;20252;-63
2023/03/20 04:13:02;;;;;;;0.70;0.70;;;;;;;;;;5079166;28;20208;-63
2023/03/20 04:15:30;;;;;;;0.90;0.70;;;;;;;;;;5078793;28;20640;-63
2023/03/20 04:17:58;;;;;;;1.17;0.80;;;;;;;;;;5078957;28;20617;-63
2023/03/20 04:20:25;;;;;;;1.20;0.60;;;;;;;;;;5078654;28;20325;-63
2023/03/20 04:22:54;;;;;;;1.47;0.90;;;;;;;;;;5079149;28;20294;-62
2023/03/20 04:25:23;;;;;;;1.53;1.10;;;;;;;;;;5078761;28;20290;-63
2023/03/20 04:27:52;;;;;;;1.43;0.90;;;;;;;;;;5078939;28;20252;-63
2023/03/20 04:30:20;;;;;;;0.80;0.80;;;;;;;;;;5078739;28;20222;-63
2023/03/20 04:32:48;;;;;;;0.90;0.83;;;;;;;;;;5078467;28;20214;-63
2023/03/20 04:35:16;;;;;;;1.00;1.00;;;;;;;;;;5078534;28;20206;-63
2023/03/20 04:37:44;;;;;;;1.00;0.80;;;;;;;;;;5078370;28;20707;-63
2023/03/20 04:40:12;;;;;;;0.70;0.70;;;;;;;;;;5078201;28;20759;-63
2023/03/20 04:42:40;;;;;;;0.80;0.80;;;;;;;;;;5078463;28;20305;-63
2023/03/20 04:45:10;;;;;;;1.13;1.03;;;;;;;;;;5078581;28;20206;-63
2023/03/20 04:47:38;;;;;;;0.90;0.90;;;;;;;;;;5078384;28;20208;-63
2023/03/20 04:50:07;;;;;;;2.60;1.20;;;;;;;;;;5078092;28;20232;-63
2023/03/20 04:52:34;;;;;;;1.37;0.70;;;;;;;;;;5078412;28;20206;-63
2023/03/20 04:55:02;;;;;;;1.20;1.10;;;;;;;;;;5078393;28;20213;-62
2023/03/20 04:57:31;;;;;;;4.00;1.07;;;;;;;;;;5078054;28;20237;-63
2023/03/20 04:59:59;;;;;;;2.07;1.20;;;;;;;;;;5078340;28;20226;-63
2023/03/20 05:02:29;;;;;;;1.27;0.90;;;;;;;;;;5077943;28;20226;-63
2023/03/20 05:04:57;;;;;;;1.20;1.10;;;;;;;;;;5078030;28;20210;-63
2023/03/20 05:07:25;;;;;;;2.60;1.10;;;;;;;;;;5077965;28;20213;-62
2023/03/20 05:09:53;;;;;;;1.20;1.10;;;;;;;;;;5077794;28;20246;-63
2023/03/20 05:12:21;;;;;;;1.87;0.97;;;;;;;;;;5078125;28;20202;-63
2023/03/20 05:14:49;;;;;;;1.47;1.23;;;;;;;;;;5077957;28;20663;-62
2023/03/20 05:17:18;;;;;;;4.60;1.20;;;;;;;;;;5077997;28;20234;-62
2023/03/20 05:19:48;;;;;;;1.70;0.93;;;;;;;;;;5077621;28;20268;-62
2023/03/20 05:22:16;;;;;;;1.30;1.13;;;;;;;;;;5077232;28;20261;-62
2023/03/20 05:24:44;;;;;;;1.30;1.13;;;;;;;;;;5077998;28;20206;-62
2023/03/20 05:27:12;;;;;;;1.20;1.07;;;;;;;;;;5077793;28;20654;-63
2023/03/20 05:29:40;;;;;;;1.63;1.40;;;;;;;;;;5078011;28;20226;-63
2023/03/20 05:32:08;;;;;;;2.50;1.37;;;;;;;;;;5077908;28;20202;-63
2023/03/20 05:34:36;;;;;;;1.03;1.03;;;;;;;;;;5077711;28;20210;-63
2023/03/20 05:37:05;;;;;;;1.00;1.00;;;;;;;;;;5078022;28;20210;-62
2023/03/20 05:39:33;;;;;;;2.17;1.30;;;;;;;;;;5077732;28;20252;-63
2023/03/20 05:42:01;;;;;;;1.53;1.30;;;;;;;;;;5077794;28;20225;-62
2023/03/20 05:44:29;;;;;;;1.20;1.10;;;;;;;;;;5077805;28;20236;-62
2023/03/20 05:46:57;;;;;;;1.40;1.30;;;;;;;;;;5077496;28;20716;-63
2023/03/20 05:49:25;;;;;;;5.17;2.00;;;;;;;;;;5077085;28;20667;-63
2023/03/20 05:51:53;;;;;;;2.90;1.83;;;;;;;;;;5077549;28;20202;-62
2023/03/20 05:54:23;;;;;;;1.57;1.20;;;;;;;;;;5077472;28;20206;-62
2023/03/20 05:56:51;;;;;;;1.40;1.30;;;;;;;;;;5077469;28;20209;-63
2023/03/20 05:59:18;;;;;;;6.13;1.70;;;;;;;;;;5077276;28;20333;-62
2023/03/20 06:01:46;;;;;;;1.17;1.17;;;;;;;;;;5077278;28;20290;-62
2023/03/20 06:04:14;;;;;;;3.37;1.57;;;;;;;;;;5077349;28;20210;-63
2023/03/20 06:06:42;;;;;;;2.80;1.77;;;;;;;;;;5077687;28;20206;-62
2023/03/20 06:09:10;;;;;;;1.17;1.10;;;;;;;;;;5077024;28;20329;-62
2023/03/20 06:11:39;;;;;;;1.50;1.40;;;;;;;;;;5077603;28;20202;-62
2023/03/20 06:14:07;;;;;;;4.10;2.37;;;;;;;;;;5077197;28;20737;-63
2023/03/20 06:16:35;;;;;;;2.23;1.80;;;;;;;;;;5077500;28;20214;-63
2023/03/20 06:19:05;;;;;;;3.00;1.90;;;;;;;;;;5077462;28;20305;-63
2023/03/20 06:21:33;;;;;;;2.20;1.40;;;;;;;;;;5077391;28;20226;-63
2023/03/20 06:24:01;;;;;;;2.13;1.40;;;;;;;;;;5077810;28;20220;-64
2023/03/20 06:26:28;;;;;;;3.90;1.30;;;;;;;;;;5077533;28;20211;-63
2023/03/20 06:28:58;;;;;;;2.40;1.30;;;;;;;;;;5076986;28;20665;-63
2023/03/20 06:31:26;;;;;;;1.53;1.10;;;;;;;;;;5077214;28;20203;-62
2023/03/20 06:33:54;;;;;;;2.33;1.13;;;;;;;;;;5078475;28;20277;-63
2023/03/20 06:36:22;;;;;;;2.27;1.30;;;;;;;;;;5080749;28;20213;-62
2023/03/20 06:38:50;;;;;;;2.47;1.60;;;;;;;;;;5080960;28;20289;-63
2023/03/20 06:41:18;;;;;;;2.70;1.43;;;;;;;;;;5077092;28;20248;-62
2023/03/20 06:44:03;;;;;;;2.90;1.40;;;;;;;;;;5080647;28;20269;-63
2023/03/20 06:46:31;;;;;;;1.70;1.50;;;;;;;;;;5080637;28;20206;-63
2023/03/20 06:49:00;;;;;;;1.77;1.63;;;;;;;;;;5080734;28;20209;-63
2023/03/20 06:51:28;;;;;;;2.00;1.80;;;;;;;;;;5080401;28;20202;-63
2023/03/20 06:53:56;;;;;;;4.23;1.90;;;;;;;;;;5080346;28;20293;-62
2023/03/20 06:56:24;;;;;;;3.80;2.30;;;;;;;;;;5080302;28;20836;-62
2023/03/20 06:58:52;;;;;;;3.23;2.40;;;;;;;;;;5080844;28;20206;-62
2023/03/20 07:01:22;;;;;;;2.20;1.50;;;;;;;;;;5080416;28;20206;-63
2023/03/20 07:03:50;;;;;;;1.63;1.47;;;;;;;;;;5080548;28;20261;-63
2023/03/20 07:06:18;;;;;;;3.53;1.30;;;;;;;;;;5079989;28;20268;-62
2023/03/20 07:08:46;;;;;;;3.97;1.80;;;;;;;;;;5080017;28;20615;-63
2023/03/20 07:11:14;;;;;;;2.30;1.67;;;;;;;;;;5080105;28;20253;-63
2023/03/20 07:13:42;;;;;;;2.60;1.60;;;;;;;;;;5079983;28;20202;-63
2023/03/20 07:16:11;;;;;;;1.60;1.50;;;;;;;;;;5079884;28;20550;-62
2023/03/20 07:18:40;;;;;;;2.57;1.57;;;;;;;;;;5080192;28;20206;-63
2023/03/20 07:21:08;;;;;;;2.33;1.53;;;;;;;;;;5079959;28;20230;-62
2023/03/20 07:23:36;;;;;;;2.63;1.90;;;;;;;;;;5079818;28;20797;-63
2023/03/20 07:26:05;;;;;;;2.10;1.67;;;;;;;;;;5080038;28;20210;-63
2023/03/20 07:28:33;;;;;;;1.90;1.70;;;;;;;;;;5079825;28;20210;-63
2023/03/20 07:31:01;;;;;;;3.33;1.67;;;;;;;;;;5079886;28;20286;-63
2023/03/20 07:33:29;;;;;;;7.03;2.20;;;;;;;;;;5079946;28;20213;-63
2023/03/20 07:35:59;;;;;;;2.70;2.07;;;;;;;;;;5079561;28;20206;-63
2023/03/20 07:38:27;;;;;;;4.27;2.03;;;;;;;;;;5079489;28;20622;-63
2023/03/20 07:40:55;;;;;;;2.97;2.00;;;;;;;;;;5079356;28;20225;-63
2023/03/20 07:43:23;;;;;;;3.17;1.93;;;;;;;;;;5079253;28;20564;-63
2023/03/20 07:45:51;;;;;;;4.23;1.67;;;;;;;;;;5078657;28;20210;-63
2023/03/20 07:48:21;;;;;;;2.03;1.60;;;;;;;;;;5079727;28;20284;-63
2023/03/20 07:50:49;;;;;;;2.80;2.00;;;;;;;;;;5078844;28;20416;-63
2023/03/20 07:53:18;;;;;;;5.20;1.87;;;;;;;;;;5079225;28;20202;-63
2023/03/20 07:55:46;;;;;;;4.57;1.93;;;;;;;;;;5079401;28;20213;-63
2023/03/20 07:58:14;;;;;;;3.00;1.90;;;;;;;;;;5079446;28;20213;-63
2023/03/20 08:00:42;;;;;;;3.80;2.07;;;;;;;;;;5079266;28;20290;-63
2023/03/20 08:03:10;;;;;;;5.03;2.20;;;;;;;;;;5078881;28;20226;-63
2023/03/20 08:05:39;;;;;;;5.43;2.10;;;;;;;;;;5078961;28;20202;-63
2023/03/20 08:08:07;;;;;;;3.57;2.10;;;;;;;;;;5079421;28;20581;-62
2023/03/20 08:10:36;;;;;;;4.83;2.07;;;;;;;;;;5078927;28;20245;-62
2023/03/20 08:13:04;;;;;;;2.63;1.80;;;;;;;;;;5079303;28;20223;-63
2023/03/20 08:15:32;;;;;;;4.00;2.00;;;;;;;;;;5079152;28;20210;-63
2023/03/20 08:18:00;;;;;;;2.50;2.00;;;;;;;;;;5078997;28;20264;-63
2023/03/20 08:20:29;;;;;;;3.53;1.70;;;;;;;;;;5078474;28;20237;-63
2023/03/20 08:22:57;;;;;;;1.70;1.60;;;;;;;;;;5078684;28;20248;-62
2023/03/20 08:25:25;;;;;;;2.03;1.73;;;;;;;;;;5078935;28;20212;-62
2023/03/20 08:27:55;;;;;;;2.53;2.10;;;;;;;;;;5078881;28;20202;-63
2023/03/20 08:30:23;;;;;;;3.77;2.10;;;;;;;;;;5078910;28;20265;-62
2023/03/20 08:32:50;;;;;;;3.43;2.10;;;;;;;;;;5078648;28;20202;-62
2023/03/20 08:35:19;;;;;;;2.03;1.80;;;;;;;;;;5077891;28;20206;-63
2023/03/20 08:38:00;;;;;;;5.10;2.47;;;;;;;;;;5078379;28;20210;-62
2023/03/20 08:40:28;;;;;;;2.73;2.10;;;;;;;;;;5078253;28;20265;-63
2023/03/20 08:42:57;;;;;;;2.07;1.70;;;;;;;;;;5078232;28;20268;-63
2023/03/20 08:45:26;;;;;;;3.53;2.63;;;;;;;;;;5078327;28;20669;-62
2023/03/20 08:47:55;;;;;;;3.33;2.40;;;;;;;;;;5078331;28;20263;-62
2023/03/20 08:50:23;;;;;;;3.07;1.90;;;;;;;;;;5078006;28;20244;-62
2023/03/20 08:52:51;;;;;;;2.13;1.97;;;;;;;;;;5078306;28;20213;-63
2023/03/20 08:55:26;;;;;;;4.50;2.40;;;;;;;;;;5078082;28;20206;-63
2023/03/20 08:57:56;;;;;;;3.83;2.37;;;;;;;;;;5078262;28;20213;-63
2023/03/20 09:00:26;;;;;;;2.93;1.97;;;;;;;;;;5077857;28;20226;-63
2023/03/20 09:02:54;;;;;;;4.53;2.70;;;;;;;;;;5078154;28;20222;-63
2023/03/20 09:05:22;;;;;;;5.67;2.93;;;;;;;;;;5077858;28;20210;-62
2023/03/20 09:07:50;;;;;;;3.70;2.70;;;;;;;;;;5078120;28;20233;-63
2023/03/20 09:10:18;;;;;;;4.33;2.60;;;;;;;;;;5077775;28;20249;-63
2023/03/20 09:12:46;;;;;;;2.57;2.37;;;;;;;;;;5078100;28;20736;-63
2023/03/20 09:15:14;;;;;;;3.97;2.10;;;;;;;;;;5077878;28;20285;-62
2023/03/20 09:17:43;;;;;;;3.73;2.50;;;;;;;;;;5077922;28;20229;-63
2023/03/20 09:20:11;;;;;;;5.07;2.50;;;;;;;;;;5077390;28;20233;-62
2023/03/20 09:22:42;;;;;;;3.83;2.20;;;;;;;;;;5077864;28;20299;-63
2023/03/20 09:25:10;;;;;;;2.83;2.53;;;;;;;;;;5077768;28;20657;-63
2023/03/20 09:27:38;;;;;;;2.37;2.17;;;;;;;;;;5077771;28;20202;-62
2023/03/20 09:30:08;;;;;;;4.47;2.30;;;;;;;;;;5077638;28;20230;-63
2023/03/20 09:32:36;;;;;;;4.87;2.87;;;;;;;;;;5077871;28;20269;-63
2023/03/20 09:35:06;;;;;;;2.73;2.33;;;;;;;;;;5077347;28;20745;-63
2023/03/20 09:37:35;;;;;;;4.70;2.27;;;;;;;;;;5077913;28;20245;-63
2023/03/20 09:40:04;;;;;;;7.07;2.30;;;;;;;;;;5077702;28;20222;-63
2023/03/20 09:42:37;;;;;;;7.03;2.17;;;;;;;;;;5077946;28;20220;-63
2023/03/20 09:45:08;;;;;;;2.37;1.93;;;;;;;;;;5077557;28;20259;-63
2023/03/20 09:47:40;;;;;;;3.17;2.40;;;;;;;;;;5077699;28;20245;-63
2023/03/20 09:50:13;;;;;;;3.17;2.07;;;;;;;;;;5077142;28;20257;-63
2023/03/20 09:52:43;;;;;;;2.37;2.10;;;;;;;;;;5077539;28;20659;-62
2023/03/20 09:55:13;;;;;;;3.63;2.40;;;;;;;;;;5078197;28;20203;-63
2023/03/20 09:57:42;;;;;;;4.67;2.40;;;;;;;;;;5077299;28;20764;-63
2023/03/20 10:00:13;;;;;;;2.40;2.20;;;;;;;;;;5077389;28;20587;-63
2023/03/20 10:02:45;;;;;;;4.87;2.03;;;;;;;;;;5077571;28;20234;-63
2023/03/20 10:05:18;;;;;;;2.13;1.90;;;;;;;;;;5077120;28;20236;-62
2023/03/20 10:07:46;;;;;;;3.33;2.10;;;;;;;;;;5077385;28;20217;-62
2023/03/20 10:10:19;;;;;;;4.43;2.37;;;;;;;;;;5080509;28;20330;-63
2023/03/20 10:12:49;;;;;;;4.47;2.40;;;;;;;;;;5081488;28;20232;-63
2023/03/20 10:15:21;;;;;;;2.37;1.80;;;;;;;;;;5081124;28;20350;-62
2023/03/20 10:17:57;;;;;;;4.90;2.10;;;;;;;;;;5081409;28;20213;-63
2023/03/20 10:20:32;;;;;;;3.90;2.10;;;;;;;;;;5080924;28;20226;-63
2023/03/20 10:23:03;;;;;;;1.73;1.63;;;;;;;;;;5081120;28;20551;-63
2023/03/20 10:25:32;;;;;;;2.10;2.00;;;;;;;;;;5081144;28;20261;-63
2023/03/20 10:28:03;;;;;;;1.60;1.50;;;;;;;;;;5080841;28;20202;-62
2023/03/20 10:30:37;;;;;;;2.33;2.13;;;;;;;;;;5080447;28;20229;-63
2023/03/20 10:33:25;;;;;;;3.23;2.47;;;;;;;;;;5080474;28;20251;-63
2023/03/20 10:36:02;;;;;;;2.50;2.30;;;;;;;;;;5080334;28;20206;-63
2023/03/20 10:38:35;;;;;;;4.07;2.27;;;;;;;;;;5080440;28;20642;-63
2023/03/20 10:41:04;;;;;;;4.73;2.23;;;;;;;;;;5080501;28;20690;-62
2023/03/20 10:43:34;;;;;;;3.33;3.03;;;;;;;;;;5080679;28;20311;-63
2023/03/20 10:46:09;;;;;;;11.83;2.50;;;;;;;;;;5080587;28;20209;-63
2023/03/20 10:48:39;;;;;;;4.73;2.47;;;;;;;;;;5080655;28;20206;-63
2023/03/20 10:51:13;;;;;;;3.73;2.87;;;;;;;;;;5080025;28;20221;-63
2023/03/20 10:53:43;;;;;;;3.93;3.00;;;;;;;;;;5080771;28;20297;-63
2023/03/20 10:56:13;;;;;;;3.00;2.60;;;;;;;;;;5080156;28;20676;-63
2023/03/20 10:58:46;;;;;;;5.17;2.80;;;;;;;;;;5080523;28;20206;-63
2023/03/20 11:01:14;;;;;;;1.77;1.67;;;;;;;;;;5080029;28;20340;-63
2023/03/20 11:03:42;;;;;;;4.57;1.73;;;;;;;;;;5080262;28;20210;-63
2023/03/20 11:06:17;;;;;;;2.00;1.40;;;;;;;;;;5080123;28;20202;-63
2023/03/20 11:08:47;;;;;;;2.13;1.93;;;;;;;;;;5080174;28;20209;-63
2023/03/20 11:11:21;;;;;;;2.00;1.90;;;;;;;;;;5080288;28;20256;-63
2023/03/20 11:13:49;;;;;;;3.13;1.70;;;;;;;;;;5080210;28;20285;-62
2023/03/20 11:16:19;;;;;;;2.57;1.50;;;;;;;;;;5080017;28;20241;-63
2023/03/20 11:18:49;;;;;;;5.63;2.20;;;;;;;;;;5079818;28;20217;-63
2023/03/20 11:21:20;;;;;;;1.87;1.77;;;;;;;;;;5078496;28;20701;-62
2023/03/20 11:23:48;;;;;;;3.13;2.33;;;;;;;;;;5080051;28;20234;-63
2023/03/20 11:26:17;;;;;;;2.00;1.90;;;;;;;;;;5079657;28;20678;-63
2023/03/20 11:28:48;;;;;;;2.00;1.90;;;;;;;;;;5066489;28;20206;-62
2023/03/20 11:31:17;;;;;;;2.63;1.97;;;;;;;;;;5079600;28;20308;-63
2023/03/20 11:33:46;;;;;;;4.37;2.00;;;;;;;;;;5079981;28;20213;-63
2023/03/20 11:36:22;;;;;;;3.00;2.00;;;;;;;;;;5079836;28;20203;-63
2023/03/20 11:38:54;;;;;;;3.83;1.70;;;;;;;;;;5079666;28;20206;-63
2023/03/20 11:41:24;;;;;;;3.50;2.40;;;;;;;;;;5079516;28;20737;-63
2023/03/20 11:43:52;;;;;;;2.70;1.97;;;;;;;;;;5079581;28;20281;-63
2023/03/20 11:46:21;;;;;;;3.87;1.90;;;;;;;;;;5079136;28;20261;-63
2023/03/20 11:49:02;;;;;;;4.03;2.33;;;;;;;;;;5079149;28;20214;-63
2023/03/20 11:51:32;;;;;;;2.60;2.10;;;;;;;;;;5079570;28;20201;-63
2023/03/20 11:54:01;;;;;;;2.73;2.23;;;;;;;;;;5079243;28;20680;-63
2023/03/20 11:56:31;;;;;;;2.13;1.93;;;;;;;;;;5079181;28;20346;-62
2023/03/20 11:59:01;;;;;;;2.93;2.27;;;;;;;;;;5079112;28;20661;-62
2023/03/20 12:01:38;;;;;;;1.87;1.77;;;;;;;;;;5079455;28;20232;-62
2023/03/20 12:04:07;;;;;;;2.00;1.90;;;;;;;;;;5079053;28;20206;-62
2023/03/20 12:06:42;;;;;;;2.63;1.73;;;;;;;;;;5079071;28;20578;-62
2023/03/20 12:09:12;;;;;;;2.33;1.50;;;;;;;;;;5078910;28;20243;-63
2023/03/20 12:11:47;;;;;;;2.90;1.70;;;;;;;;;;5079289;28;20210;-63
2023/03/20 12:14:18;;;;;;;1.90;1.80;;;;;;;;;;5079330;28;20292;-62
2023/03/20 12:16:49;;;;;;;3.40;2.00;;;;;;;;;;5078657;28;20233;-63
2023/03/20 12:19:19;;;;;;;4.17;2.00;;;;;;;;;;5078530;28;20596;-63
2023/03/20 12:21:52;;;;;;;2.57;1.93;;;;;;;;;;5078658;28;20233;-63
2023/03/20 12:24:26;;;;;;;2.40;2.20;;;;;;;;;;5078691;28;20217;-63
2023/03/20 12:26:56;;;;;;;1.93;1.77;;;;;;;;;;5078560;28;20243;-63
2023/03/20 12:29:28;;;;;;;2.23;2.07;;;;;;;;;;5078751;28;20227;-63
2023/03/20 12:31:58;;;;;;;2.33;1.90;;;;;;;;;;5078324;28;20234;-62
2023/03/20 12:34:29;;;;;;;2.60;1.83;;;;;;;;;;5078220;28;20237;-63
2023/03/20 12:36:59;;;;;;;2.73;1.80;;;;;;;;;;5078779;28;20242;-63
2023/03/20 12:39:28;;;;;;;4.40;2.50;;;;;;;;;;5078217;28;20717;-63
2023/03/20 12:42:03;;;;;;;3.43;1.80;;;;;;;;;;5078324;28;20234;-63
2023/03/20 12:44:35;;;;;;;4.60;2.57;;;;;;;;;;5078306;28;20292;-63
2023/03/20 12:47:15;;;;;;;2.67;1.73;;;;;;;;;;5078156;28;20202;-63
2023/03/20 12:49:50;;;;;;;5.93;1.93;;;;;;;;;;5077661;28;20222;-63
2023/03/20 12:52:25;;;;;;;5.67;1.90;;;;;;;;;;5078282;28;20288;-63
2023/03/20 12:55:02;;;;;;;2.97;1.93;;;;;;;;;;5078088;28;20269;-63
2023/03/20 12:57:34;;;;;;;1.50;1.40;;;;;;;;;;5075066;28;20240;-63
2023/03/20 13:00:16;;;;;;;1.87;1.37;;;;;;;;;;5078262;28;20289;-63
2023/03/20 13:02:50;;;;;;;1.20;1.10;;;;;;;;;;5077887;28;20206;-63
2023/03/20 13:05:26;;;;;;;1.20;1.10;;;;;;;;;;5077782;28;20225;-63
2023/03/20 13:08:04;;;;;;;3.50;3.20;;;;;;;;;;5078254;28;20210;-63
2023/03/20 13:10:34;;;;;;;1.90;1.80;;;;;;;;;;5077864;28;20241;-63
2023/03/20 13:13:06;;;;;;;1.77;1.67;;;;;;;;;;5078258;28;20210;-63
2023/03/20 13:15:49;;;;;;;1.77;1.43;;;;;;;;;;5077815;28;20653;-61
2023/03/20 13:18:21;;;;;;;1.30;1.20;;;;;;;;;;5077979;28;20217;-61
2023/03/20 13:20:50;;;;;;;2.33;1.53;;;;;;;;;;5077529;28;20623;-62
2023/03/20 13:23:22;;;;;;;5.83;1.93;;;;;;;;;;5077608;28;20553;-63
2023/03/20 13:25:59;;;;;;;1.90;1.73;;;;;;;;;;5077908;28;20218;-62
2023/03/20 13:28:34;;;;;;;2.50;1.63;;;;;;;;;;5077921;28;20205;-62
2023/03/20 13:31:06;;;;;;;3.23;1.57;;;;;;;;;;5077778;28;20317;-63
2023/03/20 13:33:38;;;;;;;2.03;1.83;;;;;;;;;;5077511;28;20206;-63
2023/03/20 13:36:15;;;;;;;2.47;1.73;;;;;;;;;;5077394;28;20547;-63
2023/03/20 13:38:46;;;;;;;1.43;1.33;;;;;;;;;;5077672;28;20206;-63
2023/03/20 13:41:14;;;;;;;1.20;1.10;;;;;;;;;;5074317;28;20218;-62
2023/03/20 13:43:45;;;;;;;1.90;1.80;;;;;;;;;;5076714;28;20226;-63
2023/03/20 13:46:16;;;;;;;1.67;1.57;;;;;;;;;;5077195;28;20657;-63
2023/03/20 13:48:45;;;;;;;2.03;1.40;;;;;;;;;;5077317;28;20209;-61
2023/03/20 13:51:22;;;;;;;1.30;1.30;;;;;;;;;;5077163;28;20232;-62
2023/03/20 13:54:11;;;;;;;1.33;1.10;;;;;;;;;;5070872;28;20197;-63
2023/03/20 13:56:46;;;;;;;1.10;1.10;;;;;;;;;;5076784;28;20213;-63
2023/03/20 13:59:25;;;;;;;1.43;0.90;;;;;;;;;;5077493;28;20198;-61
2023/03/20 14:01:59;;;;;;;1.10;1.00;;;;;;;;;;5077172;28;20206;-61
2023/03/20 14:04:27;;;;;;;2.03;1.20;;;;;;;;;;5077003;28;20567;-62
2023/03/20 14:06:56;;;;;;;1.27;1.10;;;;;;;;;;5076932;28;20265;-62
2023/03/20 14:09:26;;;;;;;4.70;0.97;;;;;;;;;;5076854;28;20265;-62
2023/03/20 14:12:00;;;;;;;3.03;1.43;;;;;;;;;;5077518;28;20210;-62
2023/03/20 14:14:29;;;;;;;2.07;1.23;;;;;;;;;;5077197;28;20213;-62
2023/03/20 14:17:01;;;;;;;2.20;1.30;;;;;;;;;;5077065;28;20208;-62
2023/03/20 14:19:29;;;;;;;1.50;1.40;;;;;;;;;;5076849;28;20254;-63
2023/03/20 14:21:58;;;;;;;1.77;1.67;;;;;;;;;;5077015;28;20229;-62
2023/03/20 14:24:27;;;;;;;2.30;1.40;;;;;;;;;;5077159;28;20746;-62
2023/03/20 14:26:56;;;;;;;1.37;1.27;;;;;;;;;;5077029;28;20233;-65
2023/03/20 14:29:33;;;;;;;2.30;1.40;;;;;;;;;;5077045;28;20325;-62
2023/03/20 14:32:19;;;;;;;1.20;1.20;;;;;;;;;;5077297;28;20224;-63
2023/03/20 14:34:48;;;;;;;2.53;1.23;;;;;;;;;;5077075;28;20220;-62
2023/03/20 14:37:30;;;;;;;1.20;1.10;;;;;;;;;;5077126;28;20653;-62
2023/03/20 14:40:00;;;;;;;1.43;1.33;;;;;;;;;;5077150;28;20309;-63
2023/03/20 14:42:36;;;;;;;1.30;1.20;;;;;;;;;;5077376;28;20229;-62
2023/03/20 14:45:22;;;;;;;1.20;1.17;;;;;;;;;;5077056;28;20288;-62
2023/03/20 14:47:56;;;;;;;1.50;1.40;;;;;;;;;;5076553;28;20265;-63
2023/03/20 14:50:29;;;;;;;1.57;1.47;;;;;;;;;;5076592;28;20713;-62
2023/03/20 14:53:03;;;;;;;1.83;1.20;;;;;;;;;;5076924;28;20584;-62
2023/03/20 14:55:46;;;;;;;1.03;0.97;;;;;;;;;;5079137;28;20214;-62
2023/03/20 14:58:32;;;;;;;1.40;1.30;;;;;;;;;;5080390;28;20216;-62
2023/03/20 15:01:02;;;;;;;3.03;2.73;;;;;;;;;;5080174;28;20275;-62
2023/03/20 15:03:31;;;;;;;1.20;1.10;;;;;;;;;;5080285;28;20240;-63